createdAt,value
2022-09-23T00:01:22.289Z,2.85
2022-09-23T00:03:50.297Z,2.15
2022-09-23T00:06:20.549Z,3.17
2022-09-23T00:08:51.615Z,3.10
2022-09-23T00:11:27.592Z,2.88
2022-09-23T00:13:57.904Z,2.80
2022-09-23T00:16:32.710Z,2.95
2022-09-23T00:19:04.081Z,2.67
2022-09-23T00:21:31.497Z,2.88
2022-09-23T00:23:59.048Z,2.50
2022-09-23T00:26:27.659Z,2.40
2022-09-23T00:28:55.149Z,2.60
2022-09-23T00:31:25.037Z,2.40
2022-09-23T00:34:00.688Z,2.40
2022-09-23T00:36:32.253Z,2.80
2022-09-23T00:39:00.159Z,2.75
2022-09-23T00:41:27.910Z,2.47
2022-09-23T00:43:58.446Z,2.90
2022-09-23T00:46:32.449Z,2.67
2022-09-23T00:49:23.181Z,2.80
2022-09-23T00:51:54.713Z,2.80
2022-09-23T00:54:27.451Z,2.40
2022-09-23T00:56:57.077Z,2.50
2022-09-23T00:59:26.211Z,2.50
2022-09-23T01:04:24.695Z,2.65
2022-09-23T01:06:52.241Z,2.60
2022-09-23T01:09:21.111Z,2.60
2022-09-23T01:12:10.206Z,2.65
2022-09-23T01:14:57.404Z,2.65
2022-09-23T01:17:35.230Z,2.65
2022-09-23T01:20:16.734Z,2.83
2022-09-23T01:23:18.182Z,2.78
2022-09-23T01:26:05.293Z,2.88
2022-09-23T01:29:29.523Z,2.80
2022-09-23T01:32:08.824Z,2.50
2022-09-23T01:34:48.529Z,2.78
2022-09-23T01:37:45.777Z,2.50
2022-09-23T01:40:22.725Z,2.80
2022-09-23T01:42:52.949Z,2.40
2022-09-23T01:45:20.393Z,2.83
2022-09-23T01:48:17.582Z,2.50
2022-09-23T01:51:02.044Z,3.00
2022-09-23T01:53:37.133Z,3.17
2022-09-23T01:56:29.448Z,2.35
2022-09-23T01:59:29.217Z,2.55
2022-09-23T02:02:06.804Z,2.70
2022-09-23T02:04:45.792Z,2.67
2022-09-23T02:07:23.865Z,2.40
2022-09-23T02:10:16.776Z,2.60
2022-09-23T02:12:49.974Z,2.22
2022-09-23T02:15:25.019Z,2.47
2022-09-23T02:18:26.327Z,2.20
2022-09-23T02:21:00.445Z,2.17
2022-09-23T02:23:34.087Z,2.40
2022-09-23T02:26:30.422Z,2.60
2022-09-23T02:29:19.104Z,2.50
2022-09-23T02:34:41.457Z,2.75
2022-09-23T02:37:21.293Z,2.70
2022-09-23T02:40:09.041Z,2.75
2022-09-23T02:42:47.462Z,2.70
2022-09-23T02:45:15.515Z,2.47
2022-09-23T02:47:47.316Z,2.70
2022-09-23T02:50:15.084Z,2.47
2022-09-23T02:52:43.207Z,2.80
2022-09-23T02:55:12.175Z,2.07
2022-09-23T02:57:39.687Z,3.03
2022-09-23T03:00:07.925Z,2.80
2022-09-23T03:03:05.389Z,3.03
2022-09-23T03:05:42.175Z,2.67
2022-09-23T03:08:45.584Z,3.08
2022-09-23T03:11:14.009Z,2.70
2022-09-23T03:13:56.134Z,2.78
2022-09-23T03:16:29.182Z,2.67
2022-09-23T03:19:24.178Z,3.20
2022-09-23T03:21:56.986Z,2.85
2022-09-23T03:24:25.362Z,2.92
2022-09-23T03:26:54.953Z,3.20
2022-09-23T03:29:23.581Z,5.05
2022-09-23T03:31:52.058Z,4.95
2022-09-23T03:34:29.790Z,3.85
2022-09-23T03:37:27.122Z,3.00
2022-09-23T03:40:15.162Z,2.50
2022-09-23T03:42:42.901Z,2.63
2022-09-23T03:45:18.592Z,2.97
2022-09-23T03:47:46.462Z,2.35
2022-09-23T03:50:14.407Z,2.85
2022-09-23T03:52:41.975Z,2.28
2022-09-23T03:55:09.976Z,2.70
2022-09-23T03:57:38.090Z,2.70
2022-09-23T04:00:07.553Z,2.73
2022-09-23T04:02:35.585Z,2.67
2022-09-23T04:05:04.011Z,2.67
2022-09-23T04:07:31.520Z,2.25
2022-09-23T04:09:59.043Z,2.80
2022-09-23T04:12:28.865Z,2.80
2022-09-23T04:14:56.690Z,2.70
2022-09-23T04:17:24.815Z,2.70
2022-09-23T04:19:52.342Z,2.92
2022-09-23T04:22:20.180Z,3.20
2022-09-23T04:24:47.957Z,3.17
2022-09-23T04:27:15.765Z,3.05
2022-09-23T04:29:44.262Z,3.38
2022-09-23T04:32:11.856Z,3.08
2022-09-23T04:34:39.604Z,3.10
2022-09-23T04:37:07.404Z,3.08
2022-09-23T04:39:35.169Z,2.97
2022-09-23T04:42:04.340Z,2.97
2022-09-23T04:44:32.085Z,3.30
2022-09-23T04:46:59.654Z,3.15
2022-09-23T04:49:27.176Z,3.50
2022-09-23T04:51:55.115Z,3.20
2022-09-23T04:54:22.937Z,3.13
2022-09-23T04:56:50.531Z,3.38
2022-09-23T04:59:17.996Z,3.20
2022-09-23T05:01:45.493Z,3.58
2022-09-23T05:04:15.601Z,3.42
2022-09-23T05:06:45.893Z,3.58
2022-09-23T05:09:17.497Z,3.30
2022-09-23T05:11:46.037Z,3.00
2022-09-23T05:14:13.953Z,3.38
2022-09-23T05:16:41.477Z,3.10
2022-09-23T05:19:08.992Z,3.75
2022-09-23T05:21:37.838Z,3.47
2022-09-23T05:24:05.964Z,3.90
2022-09-23T05:26:33.503Z,4.65
2022-09-23T05:29:01.128Z,4.22
2022-09-23T05:31:30.273Z,3.92
2022-09-23T05:34:02.257Z,4.47
2022-09-23T05:36:37.591Z,3.75
2022-09-23T05:39:06.755Z,4.05
2022-09-23T05:41:34.574Z,3.75
2022-09-23T05:44:02.521Z,4.00
2022-09-23T05:46:31.097Z,2.83
2022-09-23T05:49:03.007Z,3.75
2022-09-23T05:51:32.880Z,2.92
2022-09-23T05:54:02.980Z,3.70
2022-09-23T05:56:32.041Z,3.83
2022-09-23T05:59:01.517Z,3.60
